Shinkomaru No.18 — JD3625 — position and weather

sailwx.info

Track history (hours):
 
Tides and Currents Weather Stations Pressure Air Temp Water Temp Dewpoint Dewpoint Depression Visibility Wind Speed Wind Dir Waves Ship Positions

Shinkomaru No.18

Last reported at 2017-Sep-21 11:59 UTC. Time now 2017-Sep-22 22:31 UTC.
Position N 34°05' E 134°58'.

Length 82 m; draft 4.6 m.

Type: Cargo ship. MMSI: 431005083.

Date/timePositionNaut miles runAvg speedWind from/ knotsBaromVisibWave heightAir tempDewpointWater temp
2017-Sep-21 11:59N 34°05' E 134°58'611.6
2017-Sep-21 11:30N 34°09' E 135°02'511.0
2017-Sep-21 11:01N 34°13' E 135°07'1 3.0
2017-Sep-21 10:30N 34°13' E 135°09'0 0.1
2017-Sep-21 10:00N 34°13' E 135°09'0 0.0
2017-Sep-21 09:30N 34°13' E 135°09'0 0.1
2017-Sep-21 09:00N 34°13' E 135°09'0 0.1
2017-Sep-21 08:30N 34°13' E 135°09'0 0.0
2017-Sep-21 08:00N 34°13' E 135°09'0 0.0
2017-Sep-21 07:30N 34°13' E 135°09'0 0.0
2017-Sep-21 07:00N 34°13' E 135°09'0 0.0
2017-Sep-21 06:31N 34°13' E 135°09'0 0.0
2017-Sep-21 06:00N 34°13' E 135°09'0 0.0
2017-Sep-21 05:30N 34°13' E 135°09'0 0.1
2017-Sep-21 05:00N 34°13' E 135°09'0 0.0
2017-Sep-21 04:31N 34°13' E 135°09'0 0.1
2017-Sep-21 04:00N 34°13' E 135°09'0 0.0
2017-Sep-21 03:31N 34°13' E 135°09'0 0.1
2017-Sep-21 03:00N 34°13' E 135°09'0 0.1
2017-Sep-21 02:30N 34°13' E 135°09'0 0.0
2017-Sep-21 02:00N 34°13' E 135°09'0 0.0
2017-Sep-21 01:30N 34°13' E 135°09'0 0.0
2017-Sep-21 01:01N 34°13' E 135°09'0 0.0
2017-Sep-21 00:30N 34°13' E 135°09'0 0.0
2017-Sep-21 00:00N 34°13' E 135°09'0 0.0
2017-Sep-20 23:31N 34°13' E 135°09'1 1.9
2017-Sep-20 23:01N 34°13' E 135°08'2 4.5
2017-Sep-20 22:30N 34°15' E 135°06'0 0.0
2017-Sep-20 22:00N 34°15' E 135°06'0 0.0
2017-Sep-20 21:31N 34°15' E 135°06'0 0.0
2017-Sep-20 21:00N 34°15' E 135°06'0 0.0
2017-Sep-20 20:31N 34°15' E 135°06'0 0.0
2017-Sep-20 20:00N 34°15' E 135°06'0 0.0
2017-Sep-20 19:30N 34°15' E 135°06'0 0.0
2017-Sep-20 19:00N 34°15' E 135°06'0 0.0
2017-Sep-20 18:30N 34°15' E 135°06'0 0.1
2017-Sep-20 18:00N 34°15' E 135°06'0 0.0
2017-Sep-20 17:29N 34°15' E 135°06'0 0.0
2017-Sep-20 17:00N 34°15' E 135°06'0 0.0
2017-Sep-20 16:30N 34°15' E 135°06'0 0.0
2017-Sep-20 16:00N 34°15' E 135°06'2 4.4
2017-Sep-20 15:30N 34°14' E 135°03'5 9.7
2017-Sep-20 14:59N 34°19' E 135°04'1212.2
2017-Sep-20 14:01N 34°31' E 135°03'611.3
2017-Sep-20 13:30N 34°36' E 135°02'611.1
2017-Sep-20 13:00N 34°37' E 134°55'611.4
2017-Sep-20 12:30N 34°40' E 134°49'0 0.0
2017-Sep-19 23:35N 34°40' E 134°50'512.7
2017-Sep-19 23:09N 34°37' E 134°55'213.8
2017-Sep-19 23:00N 34°37' E 134°57'713.7
2017-Sep-19 22:30N 34°35' E 135°05'713.3
2017-Sep-19 22:00N 34°29' E 135°03'712.8
2017-Sep-19 21:29N 34°22' E 135°02'911.9
2017-Sep-19 20:44N 34°13' E 134°60'311.4
2017-Sep-19 20:29N 34°10' E 135°00'223 8.9
2017-Sep-18 19:27N 34°57' E 139°25'510.1
2017-Sep-18 19:00N 34°60' E 139°30'610.7
2017-Sep-18 18:29N 35°03' E 139°35'511.6
2017-Sep-18 18:00N 35°06' E 139°41'611.4
2017-Sep-18 17:29N 35°11' E 139°45'510.6
2017-Sep-18 17:01N 35°16' E 139°46'511.0
2017-Sep-18 16:31N 35°20' E 139°42'510.6
2017-Sep-18 16:01N 35°26' E 139°44'612.0
2017-Sep-18 15:30N 35°29' E 139°50'5 9.8
2017-Sep-18 15:00N 35°29' E 139°56'0 0.1
2017-Sep-18 14:30N 35°29' E 139°56'0 0.0
2017-Sep-18 13:54N 35°29' E 139°56'0 0.0
2017-Sep-18 13:22N 35°29' E 139°56'0 0.0
2017-Sep-18 11:44N 35°29' E 139°56'0 0.0
2017-Sep-18 10:46N 35°29' E 139°56'0 0.2
2017-Sep-18 10:28N 35°29' E 139°56'0 0.0
2017-Sep-18 09:52N 35°29' E 139°56'0 0.0
2017-Sep-18 09:30N 35°29' E 139°56'0 0.0
2017-Sep-18 09:00N 35°29' E 139°56'0 0.0
2017-Sep-18 08:31N 35°29' E 139°56'0 0.1
2017-Sep-18 08:00N 35°29' E 139°56'0 0.0
2017-Sep-18 07:30N 35°29' E 139°56'0 0.0
2017-Sep-18 07:00N 35°29' E 139°56'0 0.0
2017-Sep-18 06:30N 35°29' E 139°56'0 0.0
2017-Sep-18 05:58N 35°29' E 139°56'0 0.0
2017-Sep-18 05:30N 35°29' E 139°56'0 0.0
2017-Sep-18 05:00N 35°29' E 139°56'0 0.0
2017-Sep-18 04:26N 35°29' E 139°56'0 0.0
2017-Sep-18 03:59N 35°29' E 139°56'0 0.0
2017-Sep-18 03:23N 35°29' E 139°56'0 0.0
2017-Sep-18 02:50N 35°29' E 139°56'0 0.0
2017-Sep-18 02:24N 35°29' E 139°56'0 0.0
2017-Sep-18 01:55N 35°29' E 139°56'0 0.0
2017-Sep-17 23:36N 35°29' E 139°56'0 0.1
2017-Sep-17 23:06N 35°29' E 139°56'0 0.0
2017-Sep-17 22:53N 35°29' E 139°56'0 0.0
2017-Sep-17 18:50N 35°29' E 139°56'0 0.0
2017-Sep-17 18:13N 35°29' E 139°56'0 0.0
2017-Sep-17 15:29N 35°29' E 139°56'0 0.1
2017-Sep-17 14:55N 35°29' E 139°56'0 0.0
2017-Sep-17 14:23N 35°29' E 139°56'0 0.0
2017-Sep-17 13:59N 35°29' E 139°56'0 0.0
2017-Sep-17 13:25N 35°29' E 139°56'0 0.0
2017-Sep-17 12:55N 35°29' E 139°56'0 0.0
2017-Sep-17 12:17N 35°29' E 139°56'0 0.0
2017-Sep-17 12:00N 35°29' E 139°56'0 0.1
2017-Sep-17 11:30N 35°29' E 139°56'0 0.1
2017-Sep-17 10:59N 35°29' E 139°56'0 0.1
2017-Sep-17 10:30N 35°29' E 139°56'0 0.0
2017-Sep-17 10:00N 35°29' E 139°56'0 0.0
2017-Sep-17 09:30N 35°29' E 139°56'0 0.0
2017-Sep-17 09:00N 35°29' E 139°56'0 0.0
2017-Sep-17 08:29N 35°29' E 139°56'0 0.0
2017-Sep-17 07:58N 35°29' E 139°56'0 0.0
2017-Sep-17 07:30N 35°29' E 139°56'0 0.0
2017-Sep-17 06:57N 35°29' E 139°56'0 0.0
2017-Sep-17 05:18N 35°29' E 139°56'0 0.0
2017-Sep-17 05:00N 35°29' E 139°56'0 0.0
2017-Sep-17 04:30N 35°29' E 139°56'0 0.0
2017-Sep-17 04:00N 35°29' E 139°56'0 0.0
2017-Sep-17 03:29N 35°29' E 139°56'0 0.0
2017-Sep-16 23:53N 35°29' E 139°56'0 0.0
2017-Sep-16 23:30N 35°29' E 139°56'0 0.0
2017-Sep-16 20:20N 35°29' E 139°56'0 0.0
2017-Sep-16 19:40N 35°29' E 139°56'0 0.0
2017-Sep-16 19:30N 35°29' E 139°56'0 0.0
2017-Sep-16 19:00N 35°29' E 139°56'0 0.0
2017-Sep-16 17:52N 35°29' E 139°56'0 0.0
2017-Sep-16 17:30N 35°29' E 139°56'0 0.0
2017-Sep-16 14:26N 35°29' E 139°56'0 0.0
2017-Sep-16 13:55N 35°29' E 139°56'0 0.0
2017-Sep-16 13:10N 35°29' E 139°56'0 0.0
2017-Sep-16 12:50N 35°29' E 139°56'0 0.0
2017-Sep-16 12:18N 35°29' E 139°56'0 0.0
2017-Sep-16 06:12N 35°29' E 139°56'2 7.6
2017-Sep-16 05:55N 35°29' E 139°59'1 0.2
2017-Sep-15 23:24N 35°28' E 140°00'3 6.6
2017-Sep-15 22:58N 35°29' E 139°57'0 0.5
2017-Sep-15 22:30N 35°29' E 139°56'0 0.0
2017-Sep-15 21:59N 35°29' E 139°56'0 0.0
2017-Sep-15 21:30N 35°29' E 139°56'0 0.0
2017-Sep-15 21:00N 35°29' E 139°56'0 0.0
2017-Sep-15 20:30N 35°29' E 139°56'0 0.0
2017-Sep-15 19:59N 35°29' E 139°56'0 0.0
2017-Sep-15 19:30N 35°29' E 139°56'0 0.0
2017-Sep-15 19:00N 35°29' E 139°56'0 0.0
2017-Sep-15 18:30N 35°29' E 139°56'0 0.0
2017-Sep-15 18:00N 35°29' E 139°56'0 0.0
2017-Sep-15 17:26N 35°29' E 139°56'0 0.0
2017-Sep-15 17:00N 35°29' E 139°56'0 0.0
2017-Sep-15 16:30N 35°29' E 139°56'0 0.0
2017-Sep-15 16:00N 35°29' E 139°56'0 0.0
2017-Sep-15 15:30N 35°29' E 139°56'0 0.0
2017-Sep-15 14:58N 35°29' E 139°56'0 0.0
2017-Sep-15 14:26N 35°29' E 139°56'0 0.0
2017-Sep-15 13:59N 35°29' E 139°56'0 0.0
2017-Sep-15 13:23N 35°29' E 139°56'0 0.0
2017-Sep-15 13:00N 35°29' E 139°56'0 0.0
2017-Sep-15 12:30N 35°29' E 139°56'0 0.0
2017-Sep-15 11:59N 35°29' E 139°56'0 0.7
2017-Sep-15 11:24N 35°29' E 139°56'410.3
2017-Sep-15 11:01N 35°28' E 139°51'611.1
2017-Sep-15 10:30N 35°22' E 139°52'1 1.0
2017-Sep-15 09:59N 35°22' E 139°53'0 0.0
2017-Sep-15 09:28N 35°22' E 139°53'0 0.0
2017-Sep-15 09:00N 35°22' E 139°53'0 0.0
2017-Sep-15 07:44N 35°22' E 139°53'0 0.0
2017-Sep-15 07:29N 35°22' E 139°53'0 0.0
2017-Sep-15 06:30N 35°22' E 139°53'0 0.0
2017-Sep-15 05:59N 35°22' E 139°53'0 0.0
2017-Sep-15 02:53N 35°22' E 139°53'0 0.0
2017-Sep-15 01:37N 35°22' E 139°53'0 0.0
2017-Sep-15 01:13N 35°22' E 139°53'0 0.0
2017-Sep-15 00:54N 35°22' E 139°53'0 0.0
2017-Sep-15 00:23N 35°22' E 139°53'0 0.0
2017-Sep-14 22:36N 35°22' E 139°53'0 0.0
2017-Sep-14 22:27N 35°22' E 139°53'0 0.0
2017-Sep-14 21:42N 35°22' E 139°53'0 0.0
2017-Sep-14 21:27N 35°22' E 139°53'0 0.0
2017-Sep-14 20:52N 35°22' E 139°53'2 6.6
2017-Sep-14 20:31N 35°23' E 139°50'3 6.6
2017-Sep-14 20:00N 35°23' E 139°46'510.5
2017-Sep-14 19:30N 35°18' E 139°45'510.3
2017-Sep-14 19:00N 35°13' E 139°47'510.9
2017-Sep-14 18:30N 35°08' E 139°46'611.9
2017-Sep-14 18:00N 35°02' E 139°45'  
Track history (hours):
 
Tides and Currents Weather Stations Pressure Air Temp Water Temp Dewpoint Dewpoint Depression Visibility Wind Speed Wind Dir Waves Ship Positions

Shinkomaru No.18

Last reported at 2017-Sep-21 11:59 UTC. Time now 2017-Sep-22 22:31 UTC.
Position N 34°05' E 134°58'.

Length 82 m; draft 4.6 m.

Type: Cargo ship. MMSI: 431005083.

Date/timePositionNaut miles runAvg speedWind from/ knotsBaromVisibWave heightAir tempDewpointWater temp
2017-Sep-21 11:59N 34°05' E 134°58'611.6
2017-Sep-21 11:30N 34°09' E 135°02'511.0
2017-Sep-21 11:01N 34°13' E 135°07'1 3.0
2017-Sep-21 10:30N 34°13' E 135°09'0 0.1
2017-Sep-21 10:00N 34°13' E 135°09'0 0.0
2017-Sep-21 09:30N 34°13' E 135°09'0 0.1
2017-Sep-21 09:00N 34°13' E 135°09'0 0.1
2017-Sep-21 08:30N 34°13' E 135°09'0 0.0
2017-Sep-21 08:00N 34°13' E 135°09'0 0.0
2017-Sep-21 07:30N 34°13' E 135°09'0 0.0
2017-Sep-21 07:00N 34°13' E 135°09'0 0.0
2017-Sep-21 06:31N 34°13' E 135°09'0 0.0
2017-Sep-21 06:00N 34°13' E 135°09'0 0.0
2017-Sep-21 05:30N 34°13' E 135°09'0 0.1
2017-Sep-21 05:00N 34°13' E 135°09'0 0.0
2017-Sep-21 04:31N 34°13' E 135°09'0 0.1
2017-Sep-21 04:00N 34°13' E 135°09'0 0.0
2017-Sep-21 03:31N 34°13' E 135°09'0 0.1
2017-Sep-21 03:00N 34°13' E 135°09'0 0.1
2017-Sep-21 02:30N 34°13' E 135°09'0 0.0
2017-Sep-21 02:00N 34°13' E 135°09'0 0.0
2017-Sep-21 01:30N 34°13' E 135°09'0 0.0
2017-Sep-21 01:01N 34°13' E 135°09'0 0.0
2017-Sep-21 00:30N 34°13' E 135°09'0 0.0
2017-Sep-21 00:00N 34°13' E 135°09'0 0.0
2017-Sep-20 23:31N 34°13' E 135°09'1 1.9
2017-Sep-20 23:01N 34°13' E 135°08'2 4.5
2017-Sep-20 22:30N 34°15' E 135°06'0 0.0
2017-Sep-20 22:00N 34°15' E 135°06'0 0.0
2017-Sep-20 21:31N 34°15' E 135°06'0 0.0
2017-Sep-20 21:00N 34°15' E 135°06'0 0.0
2017-Sep-20 20:31N 34°15' E 135°06'0 0.0
2017-Sep-20 20:00N 34°15' E 135°06'0 0.0
2017-Sep-20 19:30N 34°15' E 135°06'0 0.0
2017-Sep-20 19:00N 34°15' E 135°06'0 0.0
2017-Sep-20 18:30N 34°15' E 135°06'0 0.1
2017-Sep-20 18:00N 34°15' E 135°06'0 0.0
2017-Sep-20 17:29N 34°15' E 135°06'0 0.0
2017-Sep-20 17:00N 34°15' E 135°06'0 0.0
2017-Sep-20 16:30N 34°15' E 135°06'0 0.0
2017-Sep-20 16:00N 34°15' E 135°06'2 4.4
2017-Sep-20 15:30N 34°14' E 135°03'5 9.7
2017-Sep-20 14:59N 34°19' E 135°04'1212.2
2017-Sep-20 14:01N 34°31' E 135°03'611.3
2017-Sep-20 13:30N 34°36' E 135°02'611.1
2017-Sep-20 13:00N 34°37' E 134°55'611.4
2017-Sep-20 12:30N 34°40' E 134°49'0 0.0
2017-Sep-19 23:35N 34°40' E 134°50'512.7
2017-Sep-19 23:09N 34°37' E 134°55'213.8
2017-Sep-19 23:00N 34°37' E 134°57'713.7
2017-Sep-19 22:30N 34°35' E 135°05'713.3
2017-Sep-19 22:00N 34°29' E 135°03'712.8
2017-Sep-19 21:29N 34°22' E 135°02'911.9
2017-Sep-19 20:44N 34°13' E 134°60'311.4
2017-Sep-19 20:29N 34°10' E 135°00'223 8.9
2017-Sep-18 19:27N 34°57' E 139°25'510.1
2017-Sep-18 19:00N 34°60' E 139°30'610.7
2017-Sep-18 18:29N 35°03' E 139°35'511.6
2017-Sep-18 18:00N 35°06' E 139°41'611.4
2017-Sep-18 17:29N 35°11' E 139°45'510.6
2017-Sep-18 17:01N 35°16' E 139°46'511.0
2017-Sep-18 16:31N 35°20' E 139°42'510.6
2017-Sep-18 16:01N 35°26' E 139°44'612.0
2017-Sep-18 15:30N 35°29' E 139°50'5 9.8
2017-Sep-18 15:00N 35°29' E 139°56'0 0.1
2017-Sep-18 14:30N 35°29' E 139°56'0 0.0
2017-Sep-18 13:54N 35°29' E 139°56'0 0.0
2017-Sep-18 13:22N 35°29' E 139°56'0 0.0
2017-Sep-18 11:44N 35°29' E 139°56'0 0.0
2017-Sep-18 10:46N 35°29' E 139°56'0 0.2
2017-Sep-18 10:28N 35°29' E 139°56'0 0.0
2017-Sep-18 09:52N 35°29' E 139°56'0 0.0
2017-Sep-18 09:30N 35°29' E 139°56'0 0.0
2017-Sep-18 09:00N 35°29' E 139°56'0 0.0
2017-Sep-18 08:31N 35°29' E 139°56'0 0.1
2017-Sep-18 08:00N 35°29' E 139°56'0 0.0
2017-Sep-18 07:30N 35°29' E 139°56'0 0.0
2017-Sep-18 07:00N 35°29' E 139°56'0 0.0
2017-Sep-18 06:30N 35°29' E 139°56'0 0.0
2017-Sep-18 05:58N 35°29' E 139°56'0 0.0
2017-Sep-18 05:30N 35°29' E 139°56'0 0.0
2017-Sep-18 05:00N 35°29' E 139°56'0 0.0
2017-Sep-18 04:26N 35°29' E 139°56'0 0.0
2017-Sep-18 03:59N 35°29' E 139°56'0 0.0
2017-Sep-18 03:23N 35°29' E 139°56'0 0.0
2017-Sep-18 02:50N 35°29' E 139°56'0 0.0
2017-Sep-18 02:24N 35°29' E 139°56'0 0.0
2017-Sep-18 01:55N 35°29' E 139°56'0 0.0
2017-Sep-17 23:36N 35°29' E 139°56'0 0.1
2017-Sep-17 23:06N 35°29' E 139°56'0 0.0
2017-Sep-17 22:53N 35°29' E 139°56'0 0.0
2017-Sep-17 18:50N 35°29' E 139°56'0 0.0
2017-Sep-17 18:13N 35°29' E 139°56'0 0.0
2017-Sep-17 15:29N 35°29' E 139°56'0 0.1
2017-Sep-17 14:55N 35°29' E 139°56'0 0.0
2017-Sep-17 14:23N 35°29' E 139°56'0 0.0
2017-Sep-17 13:59N 35°29' E 139°56'0 0.0
2017-Sep-17 13:25N 35°29' E 139°56'0 0.0
2017-Sep-17 12:55N 35°29' E 139°56'0 0.0
2017-Sep-17 12:17N 35°29' E 139°56'0 0.0
2017-Sep-17 12:00N 35°29' E 139°56'0 0.1
2017-Sep-17 11:30N 35°29' E 139°56'0 0.1
2017-Sep-17 10:59N 35°29' E 139°56'0 0.1
2017-Sep-17 10:30N 35°29' E 139°56'0 0.0
2017-Sep-17 10:00N 35°29' E 139°56'0 0.0
2017-Sep-17 09:30N 35°29' E 139°56'0 0.0
2017-Sep-17 09:00N 35°29' E 139°56'0 0.0
2017-Sep-17 08:29N 35°29' E 139°56'0 0.0
2017-Sep-17 07:58N 35°29' E 139°56'0 0.0
2017-Sep-17 07:30N 35°29' E 139°56'0 0.0
2017-Sep-17 06:57N 35°29' E 139°56'0 0.0
2017-Sep-17 05:18N 35°29' E 139°56'0 0.0
2017-Sep-17 05:00N 35°29' E 139°56'0 0.0
2017-Sep-17 04:30N 35°29' E 139°56'0 0.0
2017-Sep-17 04:00N 35°29' E 139°56'0 0.0
2017-Sep-17 03:29N 35°29' E 139°56'0 0.0
2017-Sep-16 23:53N 35°29' E 139°56'0 0.0
2017-Sep-16 23:30N 35°29' E 139°56'0 0.0
2017-Sep-16 20:20N 35°29' E 139°56'0 0.0
2017-Sep-16 19:40N 35°29' E 139°56'0 0.0
2017-Sep-16 19:30N 35°29' E 139°56'0 0.0
2017-Sep-16 19:00N 35°29' E 139°56'0 0.0
2017-Sep-16 17:52N 35°29' E 139°56'0 0.0
2017-Sep-16 17:30N 35°29' E 139°56'0 0.0
2017-Sep-16 14:26N 35°29' E 139°56'0 0.0
2017-Sep-16 13:55N 35°29' E 139°56'0 0.0
2017-Sep-16 13:10N 35°29' E 139°56'0 0.0
2017-Sep-16 12:50N 35°29' E 139°56'0 0.0
2017-Sep-16 12:18N 35°29' E 139°56'0 0.0
2017-Sep-16 06:12N 35°29' E 139°56'2 7.6
2017-Sep-16 05:55N 35°29' E 139°59'1 0.2
2017-Sep-15 23:24N 35°28' E 140°00'3 6.6
2017-Sep-15 22:58N 35°29' E 139°57'0 0.5
2017-Sep-15 22:30N 35°29' E 139°56'0 0.0
2017-Sep-15 21:59N 35°29' E 139°56'0 0.0
2017-Sep-15 21:30N 35°29' E 139°56'0 0.0
2017-Sep-15 21:00N 35°29' E 139°56'0 0.0
2017-Sep-15 20:30N 35°29' E 139°56'0 0.0
2017-Sep-15 19:59N 35°29' E 139°56'0 0.0
2017-Sep-15 19:30N 35°29' E 139°56'0 0.0
2017-Sep-15 19:00N 35°29' E 139°56'0 0.0
2017-Sep-15 18:30N 35°29' E 139°56'0 0.0
2017-Sep-15 18:00N 35°29' E 139°56'0 0.0
2017-Sep-15 17:26N 35°29' E 139°56'0 0.0
2017-Sep-15 17:00N 35°29' E 139°56'0 0.0
2017-Sep-15 16:30N 35°29' E 139°56'0 0.0
2017-Sep-15 16:00N 35°29' E 139°56'0 0.0
2017-Sep-15 15:30N 35°29' E 139°56'0 0.0
2017-Sep-15 14:58N 35°29' E 139°56'0 0.0
2017-Sep-15 14:26N 35°29' E 139°56'0 0.0
2017-Sep-15 13:59N 35°29' E 139°56'0 0.0
2017-Sep-15 13:23N 35°29' E 139°56'0 0.0
2017-Sep-15 13:00N 35°29' E 139°56'0 0.0
2017-Sep-15 12:30N 35°29' E 139°56'0 0.0
2017-Sep-15 11:59N 35°29' E 139°56'0 0.7
2017-Sep-15 11:24N 35°29' E 139°56'410.3
2017-Sep-15 11:01N 35°28' E 139°51'611.1
2017-Sep-15 10:30N 35°22' E 139°52'1 1.0
2017-Sep-15 09:59N 35°22' E 139°53'0 0.0
2017-Sep-15 09:28N 35°22' E 139°53'0 0.0
2017-Sep-15 09:00N 35°22' E 139°53'0 0.0
2017-Sep-15 07:44N 35°22' E 139°53'0 0.0
2017-Sep-15 07:29N 35°22' E 139°53'0 0.0
2017-Sep-15 06:30N 35°22' E 139°53'0 0.0
2017-Sep-15 05:59N 35°22' E 139°53'0 0.0
2017-Sep-15 02:53N 35°22' E 139°53'0 0.0
2017-Sep-15 01:37N 35°22' E 139°53'0 0.0
2017-Sep-15 01:13N 35°22' E 139°53'0 0.0
2017-Sep-15 00:54N 35°22' E 139°53'0 0.0
2017-Sep-15 00:23N 35°22' E 139°53'0 0.0
2017-Sep-14 22:36N 35°22' E 139°53'0 0.0
2017-Sep-14 22:27N 35°22' E 139°53'0 0.0
2017-Sep-14 21:42N 35°22' E 139°53'0 0.0
2017-Sep-14 21:27N 35°22' E 139°53'0 0.0
2017-Sep-14 20:52N 35°22' E 139°53'2 6.6
2017-Sep-14 20:31N 35°23' E 139°50'3 6.6
2017-Sep-14 20:00N 35°23' E 139°46'510.5
2017-Sep-14 19:30N 35°18' E 139°45'510.3
2017-Sep-14 19:00N 35°13' E 139°47'510.9
2017-Sep-14 18:30N 35°08' E 139°46'611.9
2017-Sep-14 18:00N 35°02' E 139°45'  

Dump ship's entire track history